sensor_id;sensor_type;location;lat;lon;timestamp;pressure;altitude;pressure_sealevel;temperature;humidity
49947;BME280;35839;48.662;13.300;2022-07-01T00:00:00;96979.34;;;20.34;100.00
49947;BME280;35839;48.662;13.300;2022-07-01T00:02:25;96975.81;;;20.58;100.00
49947;BME280;35839;48.662;13.300;2022-07-01T00:04:51;96968.97;;;20.44;100.00
49947;BME280;35839;48.662;13.300;2022-07-01T00:07:17;96975.16;;;20.63;100.00
49947;BME280;35839;48.662;13.300;2022-07-01T00:09:42;96970.78;;;20.69;100.00
49947;BME280;35839;48.662;13.300;2022-07-01T00:12:07;96977.81;;;20.63;100.00
49947;BME280;35839;48.662;13.300;2022-07-01T00:14:33;96984.66;;;20.71;100.00
49947;BME280;35839;48.662;13.300;2022-07-01T00:16:59;96970.44;;;19.85;100.00
49947;BME280;35839;48.662;13.300;2022-07-01T00:19:24;96963.91;;;19.55;100.00
49947;BME280;35839;48.662;13.300;2022-07-01T00:21:52;96970.31;;;19.48;100.00
49947;BME280;35839;48.662;13.300;2022-07-01T00:24:18;96965.63;;;19.75;100.00
49947;BME280;35839;48.662;13.300;2022-07-01T00:26:43;96965.28;;;19.90;100.00
49947;BME280;35839;48.662;13.300;2022-07-01T00:29:08;96960.56;;;19.92;100.00
49947;BME280;35839;48.662;13.300;2022-07-01T00:31:34;96956.72;;;20.06;100.00
49947;BME280;35839;48.662;13.300;2022-07-01T00:34:00;96951.72;;;20.16;100.00
49947;BME280;35839;48.662;13.300;2022-07-01T00:36:26;96949.94;;;20.29;100.00
49947;BME280;35839;48.662;13.300;2022-07-01T00:38:51;96950.22;;;20.20;100.00
49947;BME280;35839;48.662;13.300;2022-07-01T00:41:17;96952.28;;;20.18;100.00
49947;BME280;35839;48.662;13.300;2022-07-01T00:43:42;96956.59;;;20.19;100.00
49947;BME280;35839;48.662;13.300;2022-07-01T00:46:07;96956.75;;;20.25;100.00
49947;BME280;35839;48.662;13.300;2022-07-01T00:48:34;96958.19;;;20.39;100.00
49947;BME280;35839;48.662;13.300;2022-07-01T00:51:01;96960.28;;;20.18;100.00
49947;BME280;35839;48.662;13.300;2022-07-01T00:53:27;96964.84;;;19.93;100.00
49947;BME280;35839;48.662;13.300;2022-07-01T00:55:52;96957.19;;;19.53;100.00
49947;BME280;35839;48.662;13.300;2022-07-01T00:58:18;96949.72;;;19.43;100.00
49947;BME280;35839;48.662;13.300;2022-07-01T01:00:43;96964.97;;;19.54;100.00
49947;BME280;35839;48.662;13.300;2022-07-01T01:03:09;96970.09;;;19.24;100.00
49947;BME280;35839;48.662;13.300;2022-07-01T01:05:40;96973.47;;;19.63;100.00
49947;BME280;35839;48.662;13.300;2022-07-01T01:08:08;96981.00;;;19.66;100.00
49947;BME280;35839;48.662;13.300;2022-07-01T01:10:35;96971.81;;;20.12;100.00
49947;BME280;35839;48.662;13.300;2022-07-01T01:13:00;96963.78;;;19.75;100.00
49947;BME280;35839;48.662;13.300;2022-07-01T01:15:26;96962.00;;;19.44;100.00
49947;BME280;35839;48.662;13.300;2022-07-01T01:17:52;96956.44;;;19.46;100.00
49947;BME280;35839;48.662;13.300;2022-07-01T01:20:18;96964.91;;;19.61;100.00
49947;BME280;35839;48.662;13.300;2022-07-01T01:22:44;96969.13;;;19.44;100.00
49947;BME280;35839;48.662;13.300;2022-07-01T01:25:10;96973.63;;;19.43;100.00
49947;BME280;35839;48.662;13.300;2022-07-01T01:27:36;96971.03;;;19.62;100.00
49947;BME280;35839;48.662;13.300;2022-07-01T01:30:04;96975.69;;;19.41;100.00
49947;BME280;35839;48.662;13.300;2022-07-01T01:32:30;96986.75;;;19.63;100.00
49947;BME280;35839;48.662;13.300;2022-07-01T01:34:55;97012.56;;;19.56;100.00
49947;BME280;35839;48.662;13.300;2022-07-01T01:37:20;97037.75;;;19.47;100.00
49947;BME280;35839;48.662;13.300;2022-07-01T01:39:46;97043.69;;;19.67;100.00
49947;BME280;35839;48.662;13.300;2022-07-01T01:42:11;97029.75;;;19.78;100.00
49947;BME280;35839;48.662;13.300;2022-07-01T01:44:36;97021.84;;;19.72;100.00
49947;BME280;35839;48.662;13.300;2022-07-01T01:47:02;97017.56;;;19.71;100.00
49947;BME280;35839;48.662;13.300;2022-07-01T01:49:28;97006.59;;;19.61;100.00
49947;BME280;35839;48.662;13.300;2022-07-01T01:51:54;97028.56;;;19.43;100.00
49947;BME280;35839;48.662;13.300;2022-07-01T01:54:20;97026.56;;;19.38;100.00
49947;BME280;35839;48.662;13.300;2022-07-01T01:56:45;97027.06;;;19.53;100.00
49947;BME280;35839;48.662;13.300;2022-07-01T01:59:10;97013.41;;;19.82;100.00
49947;BME280;35839;48.662;13.300;2022-07-01T02:01:37;97013.00;;;19.78;100.00
49947;BME280;35839;48.662;13.300;2022-07-01T02:04:03;97014.41;;;19.81;100.00
49947;BME280;35839;48.662;13.300;2022-07-01T02:06:28;97001.72;;;19.83;100.00
49947;BME280;35839;48.662;13.300;2022-07-01T02:08:54;96993.44;;;19.72;100.00
49947;BME280;35839;48.662;13.300;2022-07-01T02:11:19;96988.56;;;19.69;100.00
49947;BME280;35839;48.662;13.300;2022-07-01T02:13:44;96981.78;;;19.42;100.00
49947;BME280;35839;48.662;13.300;2022-07-01T02:16:10;96990.25;;;19.32;100.00
49947;BME280;35839;48.662;13.300;2022-07-01T02:18:36;96990.00;;;19.08;100.00
49947;BME280;35839;48.662;13.300;2022-07-01T02:21:02;96984.72;;;19.02;100.00
49947;BME280;35839;48.662;13.300;2022-07-01T02:23:28;96983.44;;;19.11;100.00
49947;BME280;35839;48.662;13.300;2022-07-01T02:25:54;96990.88;;;19.02;100.00
49947;BME280;35839;48.662;13.300;2022-07-01T02:28:20;96993.72;;;19.32;100.00
49947;BME280;35839;48.662;13.300;2022-07-01T02:30:45;96995.03;;;19.23;100.00
49947;BME280;35839;48.662;13.300;2022-07-01T02:33:11;96999.13;;;19.19;100.00
49947;BME280;35839;48.662;13.300;2022-07-01T02:35:38;97001.75;;;19.26;100.00
49947;BME280;35839;48.662;13.300;2022-07-01T02:38:05;97006.41;;;19.30;100.00
49947;BME280;35839;48.662;13.300;2022-07-01T02:40:31;97021.72;;;19.28;100.00
49947;BME280;35839;48.662;13.300;2022-07-01T02:42:58;97022.38;;;19.24;100.00
49947;BME280;35839;48.662;13.300;2022-07-01T02:45:23;97023.13;;;19.31;100.00
49947;BME280;35839;48.662;13.300;2022-07-01T02:47:50;97027.94;;;19.09;100.00
49947;BME280;35839;48.662;13.300;2022-07-01T02:50:18;97041.00;;;18.59;100.00
49947;BME280;35839;48.662;13.300;2022-07-01T02:52:44;97041.19;;;18.64;100.00
49947;BME280;35839;48.662;13.300;2022-07-01T02:55:12;97033.34;;;18.95;100.00
49947;BME280;35839;48.662;13.300;2022-07-01T02:57:38;97043.06;;;19.08;100.00
49947;BME280;35839;48.662;13.300;2022-07-01T03:00:05;97049.88;;;18.98;100.00
49947;BME280;35839;48.662;13.300;2022-07-01T03:02:34;97063.69;;;19.06;100.00
49947;BME280;35839;48.662;13.300;2022-07-01T03:04:59;97069.91;;;19.25;100.00
49947;BME280;35839;48.662;13.300;2022-07-01T03:07:25;97074.16;;;19.40;100.00
49947;BME280;35839;48.662;13.300;2022-07-01T03:09:51;97076.09;;;19.51;100.00
49947;BME280;35839;48.662;13.300;2022-07-01T03:12:17;97075.25;;;19.57;100.00
49947;BME280;35839;48.662;13.300;2022-07-01T03:15:00;97083.03;;;19.52;100.00
49947;BME280;35839;48.662;13.300;2022-07-01T03:17:27;97079.94;;;19.55;100.00
49947;BME280;35839;48.662;13.300;2022-07-01T03:19:54;97089.16;;;19.52;100.00
49947;BME280;35839;48.662;13.300;2022-07-01T03:22:21;97089.47;;;19.69;100.00
49947;BME280;35839;48.662;13.300;2022-07-01T03:24:48;97098.06;;;19.71;100.00
49947;BME280;35839;48.662;13.300;2022-07-01T03:27:14;97101.16;;;19.68;100.00
49947;BME280;35839;48.662;13.300;2022-07-01T03:29:40;97097.84;;;19.66;100.00
49947;BME280;35839;48.662;13.300;2022-07-01T03:32:06;97097.16;;;19.46;100.00
49947;BME280;35839;48.662;13.300;2022-07-01T03:34:31;97105.16;;;19.39;100.00
49947;BME280;35839;48.662;13.300;2022-07-01T03:36:56;97098.22;;;19.45;100.00
49947;BME280;35839;48.662;13.300;2022-07-01T03:39:22;97105.63;;;19.29;100.00
49947;BME280;35839;48.662;13.300;2022-07-01T03:41:47;97123.41;;;19.29;100.00
49947;BME280;35839;48.662;13.300;2022-07-01T03:44:13;97109.31;;;19.28;100.00
49947;BME280;35839;48.662;13.300;2022-07-01T03:46:38;97113.41;;;19.31;100.00
49947;BME280;35839;48.662;13.300;2022-07-01T03:49:03;97120.13;;;19.33;100.00
49947;BME280;35839;48.662;13.300;2022-07-01T03:51:33;97141.00;;;19.23;100.00
49947;BME280;35839;48.662;13.300;2022-07-01T03:53:59;97157.09;;;19.28;100.00
49947;BME280;35839;48.662;13.300;2022-07-01T03:56:43;97153.84;;;19.26;100.00
49947;BME280;35839;48.662;13.300;2022-07-01T03:59:08;97159.53;;;19.30;100.00
49947;BME280;35839;48.662;13.300;2022-07-01T04:01:33;97166.06;;;19.27;100.00
49947;BME280;35839;48.662;13.300;2022-07-01T04:03:59;97170.72;;;19.38;100.00
49947;BME280;35839;48.662;13.300;2022-07-01T04:06:25;97172.56;;;19.45;100.00
49947;BME280;35839;48.662;13.300;2022-07-01T04:08:50;97168.88;;;19.39;100.00
49947;BME280;35839;48.662;13.300;2022-07-01T04:11:16;97177.84;;;19.51;100.00
49947;BME280;35839;48.662;13.300;2022-07-01T04:13:41;97185.25;;;19.29;100.00
49947;BME280;35839;48.662;13.300;2022-07-01T04:16:12;97176.66;;;19.34;100.00
49947;BME280;35839;48.662;13.300;2022-07-01T04:18:38;97186.47;;;19.33;100.00
49947;BME280;35839;48.662;13.300;2022-07-01T04:21:03;97186.47;;;19.33;100.00
49947;BME280;35839;48.662;13.300;2022-07-01T04:23:47;97201.63;;;19.26;100.00
49947;BME280;35839;48.662;13.300;2022-07-01T04:26:12;97201.22;;;19.16;100.00
49947;BME280;35839;48.662;13.300;2022-07-01T04:28:38;97213.13;;;19.07;100.00
49947;BME280;35839;48.662;13.300;2022-07-01T04:31:03;97218.63;;;18.99;100.00
49947;BME280;35839;48.662;13.300;2022-07-01T04:33:28;97219.22;;;19.14;100.00
49947;BME280;35839;48.662;13.300;2022-07-01T04:35:54;97216.34;;;19.09;100.00
49947;BME280;35839;48.662;13.300;2022-07-01T04:38:19;97224.53;;;19.14;100.00
49947;BME280;35839;48.662;13.300;2022-07-01T04:40:44;97222.28;;;19.11;100.00
49947;BME280;35839;48.662;13.300;2022-07-01T04:43:30;97227.38;;;19.19;100.00
49947;BME280;35839;48.662;13.300;2022-07-01T04:45:55;97227.63;;;18.98;100.00
49947;BME280;35839;48.662;13.300;2022-07-01T04:48:21;97231.50;;;18.95;100.00
49947;BME280;35839;48.662;13.300;2022-07-01T04:50:47;97222.91;;;19.00;100.00
49947;BME280;35839;48.662;13.300;2022-07-01T04:53:15;97227.81;;;19.03;100.00
49947;BME280;35839;48.662;13.300;2022-07-01T04:55:40;97231.09;;;19.05;100.00
49947;BME280;35839;48.662;13.300;2022-07-01T04:58:09;97231.91;;;18.99;100.00
49947;BME280;35839;48.662;13.300;2022-07-01T05:00:34;97238.84;;;19.00;100.00
49947;BME280;35839;48.662;13.300;2022-07-01T05:03:00;97247.00;;;19.05;100.00
49947;BME280;35839;48.662;13.300;2022-07-01T05:05:25;97249.63;;;19.18;100.00
49947;BME280;35839;48.662;13.300;2022-07-01T05:07:50;97243.69;;;19.16;100.00
49947;BME280;35839;48.662;13.300;2022-07-01T05:10:16;97252.06;;;19.26;100.00
49947;BME280;35839;48.662;13.300;2022-07-01T05:12:41;97252.94;;;19.07;100.00
49947;BME280;35839;48.662;13.300;2022-07-01T05:15:07;97257.00;;;19.09;100.00
49947;BME280;35839;48.662;13.300;2022-07-01T05:17:33;97257.19;;;19.08;100.00
49947;BME280;35839;48.662;13.300;2022-07-01T05:20:17;97257.19;;;19.14;100.00
49947;BME280;35839;48.662;13.300;2022-07-01T05:23:01;97266.56;;;19.17;100.00
49947;BME280;35839;48.662;13.300;2022-07-01T05:25:27;97254.53;;;19.21;100.00
49947;BME280;35839;48.662;13.300;2022-07-01T05:27:52;97260.03;;;19.20;100.00
49947;BME280;35839;48.662;13.300;2022-07-01T05:30:19;97262.06;;;19.17;100.00
49947;BME280;35839;48.662;13.300;2022-07-01T05:32:45;97271.50;;;19.07;100.00
49947;BME280;35839;48.662;13.300;2022-07-01T05:35:10;97273.50;;;19.18;100.00
49947;BME280;35839;48.662;13.300;2022-07-01T05:37:36;97284.16;;;19.05;100.00
49947;BME280;35839;48.662;13.300;2022-07-01T05:40:01;97291.72;;;18.94;100.00
49947;BME280;35839;48.662;13.300;2022-07-01T05:42:26;97288.00;;;19.09;100.00
49947;BME280;35839;48.662;13.300;2022-07-01T05:44:52;97292.69;;;19.27;100.00
49947;BME280;35839;48.662;13.300;2022-07-01T05:47:17;97292.94;;;19.12;100.00
49947;BME280;35839;48.662;13.300;2022-07-01T05:49:42;97297.44;;;19.05;100.00
49947;BME280;35839;48.662;13.300;2022-07-01T05:52:08;97290.22;;;19.32;100.00
49947;BME280;35839;48.662;13.300;2022-07-01T05:54:33;97286.38;;;19.21;100.00
49947;BME280;35839;48.662;13.300;2022-07-01T05:56:58;97293.09;;;19.37;100.00
49947;BME280;35839;48.662;13.300;2022-07-01T05:59:24;97289.78;;;19.42;100.00
49947;BME280;35839;48.662;13.300;2022-07-01T06:01:49;97293.47;;;19.34;100.00
49947;BME280;35839;48.662;13.300;2022-07-01T06:04:16;97290.00;;;19.40;100.00
49947;BME280;35839;48.662;13.300;2022-07-01T06:06:42;97296.56;;;19.31;100.00
49947;BME280;35839;48.662;13.300;2022-07-01T06:09:07;97292.44;;;19.42;100.00
49947;BME280;35839;48.662;13.300;2022-07-01T06:11:32;97290.97;;;19.59;100.00
49947;BME280;35839;48.662;13.300;2022-07-01T06:13:58;97284.44;;;19.68;100.00
49947;BME280;35839;48.662;13.300;2022-07-01T06:16:23;97284.41;;;19.75;100.00
49947;BME280;35839;48.662;13.300;2022-07-01T06:18:48;97280.94;;;19.74;100.00
49947;BME280;35839;48.662;13.300;2022-07-01T06:21:14;97286.03;;;19.69;100.00
49947;BME280;35839;48.662;13.300;2022-07-01T06:23:41;97275.41;;;19.76;100.00
49947;BME280;35839;48.662;13.300;2022-07-01T06:26:06;97266.19;;;19.78;100.00
49947;BME280;35839;48.662;13.300;2022-07-01T06:28:31;97271.03;;;19.88;100.00
49947;BME280;35839;48.662;13.300;2022-07-01T06:30:57;97277.72;;;20.04;100.00
49947;BME280;35839;48.662;13.300;2022-07-01T06:33:22;97271.53;;;20.17;100.00
49947;BME280;35839;48.662;13.300;2022-07-01T06:35:48;97257.47;;;20.10;100.00
49947;BME280;35839;48.662;13.300;2022-07-01T06:38:13;97252.34;;;20.08;100.00
49947;BME280;35839;48.662;13.300;2022-07-01T06:40:38;97257.91;;;20.32;100.00
49947;BME280;35839;48.662;13.300;2022-07-01T06:43:04;97257.28;;;20.36;100.00
49947;BME280;35839;48.662;13.300;2022-07-01T06:45:29;97264.34;;;20.49;100.00
49947;BME280;35839;48.662;13.300;2022-07-01T06:47:55;97272.34;;;20.17;100.00
49947;BME280;35839;48.662;13.300;2022-07-01T06:50:20;97260.84;;;20.49;100.00
49947;BME280;35839;48.662;13.300;2022-07-01T06:52:46;97258.59;;;20.52;100.00
49947;BME280;35839;48.662;13.300;2022-07-01T06:55:11;97258.25;;;20.74;100.00
49947;BME280;35839;48.662;13.300;2022-07-01T06:57:37;97263.72;;;20.79;100.00
49947;BME280;35839;48.662;13.300;2022-07-01T07:00:03;97279.69;;;21.22;100.00
49947;BME280;35839;48.662;13.300;2022-07-01T07:02:28;97278.09;;;21.21;100.00
49947;BME280;35839;48.662;13.300;2022-07-01T07:04:54;97284.22;;;21.22;100.00
49947;BME280;35839;48.662;13.300;2022-07-01T07:07:23;97284.19;;;21.47;98.35
49947;BME280;35839;48.662;13.300;2022-07-01T07:09:49;97286.78;;;21.10;99.03
49947;BME280;35839;48.662;13.300;2022-07-01T07:12:14;97298.91;;;20.81;100.00
49947;BME280;35839;48.662;13.300;2022-07-01T07:14:40;97292.06;;;20.67;100.00
49947;BME280;35839;48.662;13.300;2022-07-01T07:17:05;97295.84;;;20.52;100.00
49947;BME280;35839;48.662;13.300;2022-07-01T07:19:30;97292.50;;;20.63;100.00
49947;BME280;35839;48.662;13.300;2022-07-01T07:21:56;97300.88;;;20.92;100.00
49947;BME280;35839;48.662;13.300;2022-07-01T07:24:21;97301.31;;;20.89;99.73
49947;BME280;35839;48.662;13.300;2022-07-01T07:26:47;97292.72;;;21.12;100.00
49947;BME280;35839;48.662;13.300;2022-07-01T07:29:13;97304.47;;;21.48;98.94
49947;BME280;35839;48.662;13.300;2022-07-01T07:31:38;97301.06;;;21.59;100.00
49947;BME280;35839;48.662;13.300;2022-07-01T07:34:04;97305.13;;;21.62;96.81
49947;BME280;35839;48.662;13.300;2022-07-01T07:36:29;97308.28;;;21.34;97.68
49947;BME280;35839;48.662;13.300;2022-07-01T07:38:54;97312.84;;;21.26;99.34
49947;BME280;35839;48.662;13.300;2022-07-01T07:41:20;97305.13;;;21.43;96.42
49947;BME280;35839;48.662;13.300;2022-07-01T07:43:46;97312.53;;;21.41;97.19
49947;BME280;35839;48.662;13.300;2022-07-01T07:46:13;97304.28;;;21.24;96.99
49947;BME280;35839;48.662;13.300;2022-07-01T07:48:39;97308.47;;;21.32;97.18
49947;BME280;35839;48.662;13.300;2022-07-01T07:51:05;97313.09;;;21.00;98.12
49947;BME280;35839;48.662;13.300;2022-07-01T07:53:30;97318.34;;;21.07;98.86
49947;BME280;35839;48.662;13.300;2022-07-01T07:55:56;97318.03;;;20.96;96.86
49947;BME280;35839;48.662;13.300;2022-07-01T07:58:21;97326.06;;;21.15;96.65
49947;BME280;35839;48.662;13.300;2022-07-01T08:00:46;97341.97;;;21.46;96.66
49947;BME280;35839;48.662;13.300;2022-07-01T08:03:12;97342.47;;;21.12;97.66
49947;BME280;35839;48.662;13.300;2022-07-01T08:05:37;97334.00;;;20.96;99.90
49947;BME280;35839;48.662;13.300;2022-07-01T08:08:03;97339.03;;;21.04;98.97
49947;BME280;35839;48.662;13.300;2022-07-01T08:10:28;97344.31;;;20.86;99.28
49947;BME280;35839;48.662;13.300;2022-07-01T08:12:54;97335.13;;;21.07;97.19
49947;BME280;35839;48.662;13.300;2022-07-01T08:15:22;97337.69;;;20.95;99.39
49947;BME280;35839;48.662;13.300;2022-07-01T08:17:47;97335.13;;;21.07;98.05
49947;BME280;35839;48.662;13.300;2022-07-01T08:20:13;97339.59;;;21.13;97.01
49947;BME280;35839;48.662;13.300;2022-07-01T08:22:39;97340.44;;;21.32;96.66
49947;BME280;35839;48.662;13.300;2022-07-01T08:25:04;97347.56;;;21.38;97.32
49947;BME280;35839;48.662;13.300;2022-07-01T08:27:30;97341.69;;;21.92;96.88
49947;BME280;35839;48.662;13.300;2022-07-01T08:29:55;97339.94;;;22.34;94.19
49947;BME280;35839;48.662;13.300;2022-07-01T08:32:21;97356.16;;;22.14;90.31
49947;BME280;35839;48.662;13.300;2022-07-01T08:34:47;97354.72;;;21.63;93.31
49947;BME280;35839;48.662;13.300;2022-07-01T08:37:12;97350.78;;;22.02;90.13
49947;BME280;35839;48.662;13.300;2022-07-01T08:39:38;97350.56;;;22.04;92.16
49947;BME280;35839;48.662;13.300;2022-07-01T08:42:03;97346.72;;;22.48;91.43
49947;BME280;35839;48.662;13.300;2022-07-01T08:44:31;97337.13;;;22.59;92.72
49947;BME280;35839;48.662;13.300;2022-07-01T08:46:56;97345.09;;;22.47;87.95
49947;BME280;35839;48.662;13.300;2022-07-01T08:49:21;97352.81;;;23.09;86.41
49947;BME280;35839;48.662;13.300;2022-07-01T08:51:47;97356.22;;;22.86;86.09
49947;BME280;35839;48.662;13.300;2022-07-01T08:54:13;97359.97;;;22.55;86.19
49947;BME280;35839;48.662;13.300;2022-07-01T08:56:38;97358.28;;;22.72;86.28
49947;BME280;35839;48.662;13.300;2022-07-01T08:59:10;97352.44;;;22.52;88.45
49947;BME280;35839;48.662;13.300;2022-07-01T09:01:36;97364.16;;;22.63;90.50
49947;BME280;35839;48.662;13.300;2022-07-01T09:04:18;97368.28;;;22.47;90.94
49947;BME280;35839;48.662;13.300;2022-07-01T09:06:45;97362.56;;;22.32;87.52
49947;BME280;35839;48.662;13.300;2022-07-01T09:09:12;97370.09;;;22.16;88.33
49947;BME280;35839;48.662;13.300;2022-07-01T09:14:14;97367.44;;;21.98;90.70
49947;BME280;35839;48.662;13.300;2022-07-01T09:16:47;97356.72;;;22.53;90.71
49947;BME280;35839;48.662;13.300;2022-07-01T09:19:14;97363.75;;;22.36;88.86
49947;BME280;35839;48.662;13.300;2022-07-01T09:21:40;97358.56;;;22.04;91.41
49947;BME280;35839;48.662;13.300;2022-07-01T09:24:35;97354.44;;;22.26;86.11
49947;BME280;35839;48.662;13.300;2022-07-01T09:27:05;97359.25;;;22.48;88.42
49947;BME280;35839;48.662;13.300;2022-07-01T09:29:44;97356.25;;;22.98;86.66
49947;BME280;35839;48.662;13.300;2022-07-01T09:32:12;97364.03;;;22.58;85.08
49947;BME280;35839;48.662;13.300;2022-07-01T09:34:51;97366.84;;;22.33;89.09
49947;BME280;35839;48.662;13.300;2022-07-01T09:37:19;97368.53;;;22.45;88.80
49947;BME280;35839;48.662;13.300;2022-07-01T09:42:12;97358.66;;;22.46;89.16
49947;BME280;35839;48.662;13.300;2022-07-01T09:47:25;97357.44;;;22.12;88.26
49947;BME280;35839;48.662;13.300;2022-07-01T09:49:52;97353.78;;;22.43;87.94
49947;BME280;35839;48.662;13.300;2022-07-01T09:52:19;97356.25;;;22.26;90.99
49947;BME280;35839;48.662;13.300;2022-07-01T09:54:46;97357.69;;;22.10;88.86
49947;BME280;35839;48.662;13.300;2022-07-01T09:57:13;97362.69;;;22.67;87.34
49947;BME280;35839;48.662;13.300;2022-07-01T09:59:38;97357.34;;;23.44;84.74
49947;BME280;35839;48.662;13.300;2022-07-01T10:02:05;97371.78;;;22.78;87.34
49947;BME280;35839;48.662;13.300;2022-07-01T10:04:32;97369.81;;;22.85;87.68
49947;BME280;35839;48.662;13.300;2022-07-01T10:07:10;97370.56;;;22.13;93.39
49947;BME280;35839;48.662;13.300;2022-07-01T10:12:42;97378.13;;;22.77;87.03
49947;BME280;35839;48.662;13.300;2022-07-01T10:15:11;97385.22;;;22.41;87.03
49947;BME280;35839;48.662;13.300;2022-07-01T10:17:43;97384.59;;;22.57;87.18
49947;BME280;35839;48.662;13.300;2022-07-01T10:20:15;97381.81;;;22.15;88.30
49947;BME280;35839;48.662;13.300;2022-07-01T10:22:42;97385.50;;;21.96;89.54
49947;BME280;35839;48.662;13.300;2022-07-01T10:30:55;97377.50;;;22.14;86.77
49947;BME280;35839;48.662;13.300;2022-07-01T10:35:53;97368.03;;;23.56;82.35
49947;BME280;35839;48.662;13.300;2022-07-01T10:38:18;97375.56;;;23.24;85.00
49947;BME280;35839;48.662;13.300;2022-07-01T10:40:45;97384.75;;;23.51;85.49
49947;BME280;35839;48.662;13.300;2022-07-01T10:43:15;97385.22;;;23.48;82.36
49947;BME280;35839;48.662;13.300;2022-07-01T10:45:45;97403.25;;;22.57;84.02
49947;BME280;35839;48.662;13.300;2022-07-01T10:48:22;97383.72;;;22.45;86.58
49947;BME280;35839;48.662;13.300;2022-07-01T10:50:48;97392.63;;;23.11;82.98
49947;BME280;35839;48.662;13.300;2022-07-01T10:53:14;97387.72;;;22.54;85.10
49947;BME280;35839;48.662;13.300;2022-07-01T10:55:48;97394.53;;;22.80;85.06
49947;BME280;35839;48.662;13.300;2022-07-01T10:58:14;97381.66;;;23.43;82.39
49947;BME280;35839;48.662;13.300;2022-07-01T11:00:45;97379.31;;;23.23;82.87
49947;BME280;35839;48.662;13.300;2022-07-01T11:03:13;97384.44;;;23.60;81.93
49947;BME280;35839;48.662;13.300;2022-07-01T11:05:39;97395.22;;;23.18;82.12
49947;BME280;35839;48.662;13.300;2022-07-01T11:08:06;97399.09;;;22.91;83.31
49947;BME280;35839;48.662;13.300;2022-07-01T11:10:32;97405.50;;;23.02;82.82
49947;BME280;35839;48.662;13.300;2022-07-01T11:13:00;97396.63;;;22.29;84.60
49947;BME280;35839;48.662;13.300;2022-07-01T11:15:26;97386.88;;;22.96;83.89
49947;BME280;35839;48.662;13.300;2022-07-01T11:17:55;97399.47;;;23.07;83.75
49947;BME280;35839;48.662;13.300;2022-07-01T11:20:26;97398.97;;;22.38;86.13
49947;BME280;35839;48.662;13.300;2022-07-01T11:22:52;97394.41;;;22.08;87.67
49947;BME280;35839;48.662;13.300;2022-07-01T11:25:19;97404.16;;;22.81;82.45
49947;BME280;35839;48.662;13.300;2022-07-01T11:27:47;97403.53;;;23.09;82.79
49947;BME280;35839;48.662;13.300;2022-07-01T11:30:13;97400.25;;;22.65;84.01
49947;BME280;35839;48.662;13.300;2022-07-01T11:32:42;97395.81;;;23.20;81.86
49947;BME280;35839;48.662;13.300;2022-07-01T11:35:13;97404.66;;;23.79;80.71
49947;BME280;35839;48.662;13.300;2022-07-01T11:38:08;97403.34;;;23.58;80.61
49947;BME280;35839;48.662;13.300;2022-07-01T11:40:52;97401.38;;;23.30;82.08
49947;BME280;35839;48.662;13.300;2022-07-01T11:43:24;97408.19;;;23.02;84.34
49947;BME280;35839;48.662;13.300;2022-07-01T11:45:49;97403.44;;;23.16;83.38
49947;BME280;35839;48.662;13.300;2022-07-01T11:48:48;97403.94;;;23.37;79.55
49947;BME280;35839;48.662;13.300;2022-07-01T11:51:18;97405.53;;;22.84;81.75
49947;BME280;35839;48.662;13.300;2022-07-01T11:53:46;97407.97;;;23.04;79.65
49947;BME280;35839;48.662;13.300;2022-07-01T11:56:12;97416.09;;;23.21;80.13
49947;BME280;35839;48.662;13.300;2022-07-01T11:58:49;97412.28;;;22.86;77.83
49947;BME280;35839;48.662;13.300;2022-07-01T12:03:50;97424.69;;;22.81;80.41
49947;BME280;35839;48.662;13.300;2022-07-01T12:06:19;97413.75;;;22.40;81.89
49947;BME280;35839;48.662;13.300;2022-07-01T12:08:46;97441.00;;;21.87;81.34
49947;BME280;35839;48.662;13.300;2022-07-01T12:11:12;97434.25;;;21.41;84.79
49947;BME280;35839;48.662;13.300;2022-07-01T12:13:38;97424.06;;;21.75;83.46
49947;BME280;35839;48.662;13.300;2022-07-01T12:16:08;97425.09;;;21.55;84.08
49947;BME280;35839;48.662;13.300;2022-07-01T12:18:34;97439.88;;;21.26;86.91
49947;BME280;35839;48.662;13.300;2022-07-01T12:21:00;97443.63;;;21.68;84.57
49947;BME280;35839;48.662;13.300;2022-07-01T12:23:26;97448.19;;;21.04;88.67
49947;BME280;35839;48.662;13.300;2022-07-01T12:25:51;97443.50;;;20.68;90.81
49947;BME280;35839;48.662;13.300;2022-07-01T12:28:43;97442.25;;;20.77;88.38
49947;BME280;35839;48.662;13.300;2022-07-01T12:31:14;97447.81;;;20.11;91.16
49947;BME280;35839;48.662;13.300;2022-07-01T12:33:49;97469.25;;;20.16;90.20
49947;BME280;35839;48.662;13.300;2022-07-01T12:36:14;97469.41;;;20.34;92.65
49947;BME280;35839;48.662;13.300;2022-07-01T12:38:41;97465.00;;;19.88;93.64
49947;BME280;35839;48.662;13.300;2022-07-01T12:41:26;97462.06;;;20.30;92.70
49947;BME280;35839;48.662;13.300;2022-07-01T12:43:52;97456.41;;;19.93;93.07
49947;BME280;35839;48.662;13.300;2022-07-01T12:46:31;97460.09;;;19.98;94.93
49947;BME280;35839;48.662;13.300;2022-07-01T12:48:58;97465.78;;;20.15;93.53
49947;BME280;35839;48.662;13.300;2022-07-01T12:51:32;97474.97;;;20.19;90.75
49947;BME280;35839;48.662;13.300;2022-07-01T12:53:59;97468.94;;;20.57;90.56
49947;BME280;35839;48.662;13.300;2022-07-01T12:56:27;97463.69;;;20.31;93.40
49947;BME280;35839;48.662;13.300;2022-07-01T12:58:53;97477.97;;;20.43;88.51
49947;BME280;35839;48.662;13.300;2022-07-01T13:01:20;97471.44;;;20.39;90.13
49947;BME280;35839;48.662;13.300;2022-07-01T13:03:45;97464.88;;;20.35;91.28
49947;BME280;35839;48.662;13.300;2022-07-01T13:06:12;97468.22;;;20.24;91.82